Time;durP1;ratioP1;P1;durP2;ratioP2;P2;SDS_P1;SDS_P2;PMS_P1;PMS_P2;Temp;Humidity;BMP_temperature;BMP_pressure;BME280_temperature;BME280_humidity;BME280_pressure;Samples;Min_cycle;Max_cycle;Signal;HPM_P1;HPM_P2
2022/02/15 00:00:51;;;;;;;;;;;25.40;86.50;;;;;;5095992;28;19939;-54
2022/02/15 00:03:18;;;;;;;;;;;25.60;85.30;;;;;;5096464;28;19912;-57
2022/02/15 00:05:44;;;;;;;;;;;25.70;85.50;;;;;;5095664;28;19957;-57
2022/02/15 00:08:11;;;;;;;;;;;25.60;85.60;;;;;;5095965;28;19908;-56
2022/02/15 00:10:39;;;;;;;;;;;25.70;84.60;;;;;;5095168;28;19916;-57
2022/02/15 00:13:06;;;;;;;;;;;25.80;85.10;;;;;;5095610;28;19912;-58
2022/02/15 00:15:33;;;;;;;;;;;25.80;84.40;;;;;;5095779;28;19924;-50
2022/02/15 00:17:59;;;;;;;;;;;25.90;84.60;;;;;;5096065;28;19908;-54
2022/02/15 00:20:27;;;;;;;;;;;25.90;84.00;;;;;;5096017;28;20370;-55
2022/02/15 00:22:53;;;;;;;;;;;25.90;84.30;;;;;;5095802;28;19908;-57
2022/02/15 00:25:21;;;;;;;;;;;26.00;83.90;;;;;;5077731;28;19908;-53
2022/02/15 00:27:48;;;;;;;;;;;25.90;84.20;;;;;;5095751;28;19912;-52
2022/02/15 00:30:15;;;;;;;;;;;26.00;84.20;;;;;;5077703;28;19915;-56
2022/02/15 00:32:42;;;;;;;;;;;26.10;83.70;;;;;;5091717;28;19916;-54
2022/02/15 00:35:09;;;;;;;;;;;26.00;84.10;;;;;;5095666;28;19909;-59
2022/02/15 00:37:35;;;;;;;;;;;26.00;84.00;;;;;;5095486;28;20308;-54
2022/02/15 00:40:03;;;;;;;;;;;26.00;84.60;;;;;;5095496;28;19915;-59
2022/02/15 00:42:29;;;;;;;;;;;26.00;84.40;;;;;;5095541;28;20002;-55
2022/02/15 00:44:56;;;;;;;;;;;26.10;84.30;;;;;;5095322;28;19908;-53
2022/02/15 00:47:23;;;;;;;;;;;26.20;83.80;;;;;;5094989;28;20321;-59
2022/02/15 00:49:49;;;;;;;;;;;26.10;84.00;;;;;;5095569;28;19948;-59
2022/02/15 00:52:16;;;;;;;;;;;26.10;83.90;;;;;;5095516;28;19908;-61
2022/02/15 00:54:43;;;;;;;;;;;26.30;82.70;;;;;;5094775;28;20364;-52
2022/02/15 00:57:15;;;;;;;;;;;26.30;83.30;;;;;;5095110;28;19908;-61
2022/02/15 00:59:43;;;;;;;;;;;26.30;82.80;;;;;;5095279;28;19908;-58
2022/02/15 01:02:09;;;;;;;;;;;26.40;83.00;;;;;;5094738;28;19912;-56
2022/02/15 01:04:36;;;;;;;;;;;26.30;83.60;;;;;;5094216;28;19916;-59
2022/02/15 01:10:07;;;;;;;;;;;26.50;82.60;;;;;;5095663;28;20006;-57
2022/02/15 01:12:34;;;;;;;;;;;26.40;82.90;;;;;;5094475;28;20321;-57
2022/02/15 01:15:01;;;;;;;;;;;26.50;82.60;;;;;;5094701;28;19916;-55
2022/02/15 01:17:27;;;;;;;;;;;26.60;82.20;;;;;;5095285;28;19947;-53
2022/02/15 01:19:54;;;;;;;;;;;26.60;82.10;;;;;;5094913;28;19915;-58
2022/02/15 01:22:21;;;;;;;;;;;26.80;81.30;;;;;;5094651;28;19915;-54
2022/02/15 01:24:48;;;;;;;;;;;26.70;81.60;;;;;;5076504;28;19912;-55
2022/02/15 01:27:14;;;;;;;;;;;26.80;81.50;;;;;;5094551;28;19915;-52
2022/02/15 01:29:41;;;;;;;;;;;26.80;81.90;;;;;;5076386;28;19912;-53
2022/02/15 01:32:08;;;;;;;;;;;26.80;81.50;;;;;;5094709;28;19916;-57
2022/02/15 01:34:35;;;;;;;;;;;26.80;81.20;;;;;;5093999;28;19916;-55
2022/02/15 01:37:01;;;;;;;;;;;26.90;80.90;;;;;;5094138;28;19908;-58
2022/02/15 01:39:28;;;;;;;;;;;26.90;80.40;;;;;;5094761;28;20006;-59
2022/02/15 01:41:55;;;;;;;;;;;27.00;80.20;;;;;;5094436;28;19909;-56
2022/02/15 01:44:22;;;;;;;;;;;26.90;81.30;;;;;;5094361;28;19912;-58
2022/02/15 01:46:49;;;;;;;;;;;26.70;82.00;;;;;;5094098;28;20389;-56
2022/02/15 01:49:16;;;;;;;;;;;26.70;82.30;;;;;;5094557;28;19962;-57
2022/02/15 01:51:43;;;;;;;;;;;26.70;82.50;;;;;;5075946;28;20002;-51
2022/02/15 01:54:09;;;;;;;;;;;26.80;82.00;;;;;;5094012;28;19929;-60
2022/02/15 01:56:36;;;;;;;;;;;27.00;81.20;;;;;;5094113;28;20374;-56
2022/02/15 01:59:03;;;;;;;;;;;26.90;81.70;;;;;;5093895;28;19994;-62
2022/02/15 02:01:30;;;;;;;;;;;26.90;81.50;;;;;;5094195;28;19908;-60
2022/02/15 02:03:57;;;;;;;;;;;27.00;80.90;;;;;;5093708;28;19915;-56
2022/02/15 02:06:23;;;;;;;;;;;27.10;81.00;;;;;;5094075;28;19915;-53
2022/02/15 02:08:50;;;;;;;;;;;26.90;81.40;;;;;;5093708;28;19919;-57
2022/02/15 02:11:17;;;;;;;;;;;27.00;80.80;;;;;;5094082;28;19915;-56
2022/02/15 02:13:43;;;;;;;;;;;27.10;81.00;;;;;;5093493;28;20282;-61
2022/02/15 02:16:10;;;;;;;;;;;27.10;80.90;;;;;;5092516;28;20015;-58
2022/02/15 02:18:37;;;;;;;;;;;27.00;81.10;;;;;;5093347;28;20085;-58
2022/02/15 02:21:04;;;;;;;;;;;27.00;81.40;;;;;;5093624;28;20397;-56
2022/02/15 02:23:31;;;;;;;;;;;27.10;80.80;;;;;;5093537;28;19946;-57
2022/02/15 02:25:57;;;;;;;;;;;27.00;80.90;;;;;;5093189;28;19912;-56
2022/02/15 02:28:24;;;;;;;;;;;27.20;80.50;;;;;;5075628;28;19908;-49
2022/02/15 02:30:51;;;;;;;;;;;27.20;80.80;;;;;;5093373;28;20277;-51
2022/02/15 02:33:18;;;;;;;;;;;27.10;80.90;;;;;;5093527;28;19922;-48
2022/02/15 02:35:45;;;;;;;;;;;27.10;81.20;;;;;;5093609;28;19995;-53
2022/02/15 02:38:12;;;;;;;;;;;27.10;81.10;;;;;;5093513;28;19908;-50
2022/02/15 02:40:38;;;;;;;;;;;27.10;80.70;;;;;;5093519;28;19975;-55
2022/02/15 02:43:05;;;;;;;;;;;27.20;80.60;;;;;;5093184;28;19999;-55
2022/02/15 02:45:32;;;;;;;;;;;27.20;79.90;;;;;;5093090;28;19908;-54
2022/02/15 02:47:59;;;;;;;;;;;27.20;80.30;;;;;;5093530;28;20266;-59
2022/02/15 02:50:27;;;;;;;;;;;27.20;80.30;;;;;;5093647;28;19908;-54
2022/02/15 02:52:55;;;;;;;;;;;27.30;79.90;;;;;;5093387;28;19916;-53
2022/02/15 02:55:22;;;;;;;;;;;27.30;79.90;;;;;;5088246;28;19951;-51
2022/02/15 02:57:49;;;;;;;;;;;27.20;80.60;;;;;;5073399;28;19915;-51
2022/02/15 03:00:16;;;;;;;;;;;27.20;80.50;;;;;;5072938;28;19999;-53
2022/02/15 03:02:43;;;;;;;;;;;27.20;80.70;;;;;;5072480;28;19912;-51
2022/02/15 03:05:10;;;;;;;;;;;27.20;80.80;;;;;;5072577;28;20351;-57
2022/02/15 03:07:37;;;;;;;;;;;27.20;80.60;;;;;;5072474;28;19913;-54
2022/02/15 03:10:04;;;;;;;;;;;27.20;80.20;;;;;;5072708;28;19908;-57
2022/02/15 03:12:30;;;;;;;;;;;27.10;80.60;;;;;;5071680;28;19909;-51
2022/02/15 03:14:57;;;;;;;;;;;27.20;80.50;;;;;;5072737;28;19912;-56
2022/02/15 03:17:24;;;;;;;;;;;27.20;80.40;;;;;;5093015;28;19912;-50
2022/02/15 03:19:51;;;;;;;;;;;27.20;80.40;;;;;;5092824;28;19908;-51
2022/02/15 03:22:19;;;;;;;;;;;27.30;80.40;;;;;;5093066;28;19935;-54
2022/02/15 03:24:46;;;;;;;;;;;27.30;80.10;;;;;;5093352;28;20270;-59
2022/02/15 03:27:13;;;;;;;;;;;27.40;79.20;;;;;;5091855;28;20298;-56
2022/02/15 03:29:39;;;;;;;;;;;27.50;79.40;;;;;;5097288;28;19915;-54
2022/02/15 03:32:06;;;;;;;;;;;27.60;79.20;;;;;;5096494;28;19908;-56
2022/02/15 03:34:33;;;;;;;;;;;27.50;79.50;;;;;;5095852;28;20005;-52
2022/02/15 03:37:00;;;;;;;;;;;27.50;78.80;;;;;;5096790;28;19908;-48
2022/02/15 03:39:27;;;;;;;;;;;27.50;80.00;;;;;;5095370;28;19956;-58
2022/02/15 03:44:38;;;;;;;;;;;27.30;81.10;;;;;;5096950;28;20306;-53
2022/02/15 03:47:05;;;;;;;;;;;27.40;79.60;;;;;;5096463;28;19965;-57
2022/02/15 03:49:32;;;;;;;;;;;27.30;80.50;;;;;;5096383;28;19908;-52
2022/02/15 03:51:58;;;;;;;;;;;27.30;80.40;;;;;;5096333;28;19908;-54
2022/02/15 03:54:25;;;;;;;;;;;27.50;80.00;;;;;;5096416;28;19952;-57
2022/02/15 03:56:52;;;;;;;;;;;27.40;80.00;;;;;;5095969;28;19923;-58
2022/02/15 03:59:19;;;;;;;;;;;27.50;79.70;;;;;;5096435;28;19908;-56
2022/02/15 04:01:47;;;;;;;;;;;27.40;79.80;;;;;;5090901;28;19912;-53
2022/02/15 04:04:13;;;;;;;;;;;27.50;80.10;;;;;;5094823;28;20423;-60
2022/02/15 04:06:40;;;;;;;;;;;27.70;79.70;;;;;;5092021;28;19908;-58
2022/02/15 04:09:07;;;;;;;;;;;27.70;78.60;;;;;;5095509;28;19990;-59
2022/02/15 04:11:35;;;;;;;;;;;27.80;78.10;;;;;;5092522;28;19961;-60
2022/02/15 04:14:02;;;;;;;;;;;27.80;75.20;;;;;;5091455;28;19916;-57
2022/02/15 04:16:29;;;;;;;;;;;27.80;76.60;;;;;;5089788;28;20294;-59
2022/02/15 04:18:55;;;;;;;;;;;27.80;77.30;;;;;;5084723;28;19908;-53
2022/02/15 04:21:23;;;;;;;;;;;27.90;76.20;;;;;;5089447;28;21066;-55
2022/02/15 04:23:51;;;;;;;;;;;28.00;75.50;;;;;;5072291;28;20358;-54
2022/02/15 04:26:21;;;;;;;;;;;28.00;75.10;;;;;;5083542;28;19916;-60
2022/02/15 04:28:53;;;;;;;;;;;28.00;75.50;;;;;;5067613;28;19917;-51
2022/02/15 04:31:20;;;;;;;;;;;27.80;76.20;;;;;;5086350;28;19909;-59
2022/02/15 04:33:48;;;;;;;;;;;27.60;76.80;;;;;;5085720;28;19990;-55
2022/02/15 04:36:15;;;;;;;;;;;27.60;77.10;;;;;;5080742;28;20366;-51
2022/02/15 04:38:41;;;;;;;;;;;27.60;77.40;;;;;;5088259;28;20278;-51
2022/02/15 04:41:08;;;;;;;;;;;27.60;77.70;;;;;;5088883;28;19919;-52
2022/02/15 04:43:35;;;;;;;;;;;27.50;77.20;;;;;;5088441;28;19943;-53
2022/02/15 04:46:01;;;;;;;;;;;27.50;77.70;;;;;;5060898;28;19917;-53
2022/02/15 04:48:28;;;;;;;;;;;27.60;77.60;;;;;;5088529;28;19947;-55
2022/02/15 04:50:55;;;;;;;;;;;27.60;77.70;;;;;;5090838;28;21095;-52
2022/02/15 04:53:22;;;;;;;;;;;27.50;78.20;;;;;;5084890;28;19916;-55
2022/02/15 04:55:49;;;;;;;;;;;27.40;78.60;;;;;;5083723;28;20076;-50
2022/02/15 04:58:16;;;;;;;;;;;27.40;77.60;;;;;;5089884;28;20354;-50
2022/02/15 05:00:42;;;;;;;;;;;27.40;78.50;;;;;;5087553;28;19915;-54
2022/02/15 05:03:09;;;;;;;;;;;27.40;78.60;;;;;;5085123;28;19919;-51
2022/02/15 05:05:36;;;;;;;;;;;27.40;78.00;;;;;;5082616;28;19936;-50
2022/02/15 05:08:03;;;;;;;;;;;27.40;78.60;;;;;;5076423;28;19908;-55
2022/02/15 05:10:30;;;;;;;;;;;27.40;77.90;;;;;;5081040;28;19930;-51
2022/02/15 05:12:57;;;;;;;;;;;27.40;78.10;;;;;;5089377;28;19916;-53
2022/02/15 05:15:24;;;;;;;;;;;27.40;78.10;;;;;;5081198;28;19977;-55
2022/02/15 05:17:50;;;;;;;;;;;27.50;77.40;;;;;;5090264;28;19923;-53
2022/02/15 05:20:17;;;;;;;;;;;27.40;78.00;;;;;;5091351;28;19919;-53
2022/02/15 05:22:45;;;;;;;;;;;27.30;78.50;;;;;;5091822;28;19908;-48
2022/02/15 05:25:13;;;;;;;;;;;27.40;78.80;;;;;;5087987;28;19930;-52
2022/02/15 05:27:40;;;;;;;;;;;27.40;78.40;;;;;;5090221;28;19908;-53
2022/02/15 05:30:07;;;;;;;;;;;27.40;78.80;;;;;;5091482;28;20477;-52
2022/02/15 05:32:34;;;;;;;;;;;27.40;79.10;;;;;;5090410;28;19916;-58
2022/02/15 05:35:02;;;;;;;;;;;27.30;79.40;;;;;;5088601;28;19916;-51
2022/02/15 05:37:28;;;;;;;;;;;27.30;79.10;;;;;;5090890;28;19927;-53
2022/02/15 05:39:55;;;;;;;;;;;27.30;79.20;;;;;;5089232;28;19908;-46
2022/02/15 05:42:22;;;;;;;;;;;27.30;78.70;;;;;;5090933;28;19955;-55
2022/02/15 05:44:48;;;;;;;;;;;27.30;79.10;;;;;;5092704;28;20401;-56
2022/02/15 05:47:15;;;;;;;;;;;27.20;79.30;;;;;;5092190;28;19908;-55
2022/02/15 05:52:27;;;;;;;;;;;27.20;79.50;;;;;;5090544;28;19935;-57
2022/02/15 05:54:54;;;;;;;;;;;27.20;79.70;;;;;;5092121;28;19968;-57
2022/02/15 05:57:21;;;;;;;;;;;27.10;79.90;;;;;;5092153;28;20249;-57
2022/02/15 05:59:48;;;;;;;;;;;27.10;79.90;;;;;;5091665;28;19919;-58
2022/02/15 06:02:15;;;;;;;;;;;27.10;80.30;;;;;;5092801;28;20351;-52
2022/02/15 06:04:41;;;;;;;;;;;27.00;80.30;;;;;;5093188;28;19908;-55
2022/02/15 06:07:08;;;;;;;;;;;27.00;80.60;;;;;;5093760;28;20294;-55
2022/02/15 06:09:35;;;;;;;;;;;27.00;80.70;;;;;;5093351;28;19915;-56
2022/02/15 06:12:01;;;;;;;;;;;26.90;80.70;;;;;;5092885;28;19912;-54
2022/02/15 06:14:28;;;;;;;;;;;26.90;80.80;;;;;;5093553;28;20007;-58
2022/02/15 06:16:55;;;;;;;;;;;26.90;81.20;;;;;;5093520;28;19927;-57
2022/02/15 06:19:22;;;;;;;;;;;26.80;82.00;;;;;;5093665;28;19995;-60
2022/02/15 06:21:49;;;;;;;;;;;26.80;81.80;;;;;;5093574;28;19908;-59
2022/02/15 06:24:17;;;;;;;;;;;26.80;81.90;;;;;;5093957;28;20259;-59
2022/02/15 06:26:44;;;;;;;;;;;26.80;82.10;;;;;;5092925;28;19908;-59
2022/02/15 06:29:11;;;;;;;;;;;26.70;82.10;;;;;;5075315;28;19951;-57
2022/02/15 06:31:38;;;;;;;;;;;26.70;82.30;;;;;;5093276;28;20011;-63
2022/02/15 06:34:07;;;;;;;;;;;26.70;82.30;;;;;;5092064;28;19917;-58
2022/02/15 06:36:34;;;;;;;;;;;26.70;82.50;;;;;;5092175;28;20331;-57
2022/02/15 06:39:01;;;;;;;;;;;26.60;82.70;;;;;;5074968;28;19994;-58
2022/02/15 06:41:28;;;;;;;;;;;26.60;82.90;;;;;;5093006;28;19947;-61
2022/02/15 06:43:55;;;;;;;;;;;26.50;83.00;;;;;;5093053;28;20401;-60
2022/02/15 06:46:21;;;;;;;;;;;26.50;83.70;;;;;;5092821;28;19946;-51
2022/02/15 06:48:48;;;;;;;;;;;26.50;83.10;;;;;;5092889;28;20274;-61
2022/02/15 06:51:15;;;;;;;;;;;26.40;83.30;;;;;;5093186;28;19966;-54
2022/02/15 06:53:42;;;;;;;;;;;26.30;83.40;;;;;;5093285;28;19916;-57
2022/02/15 06:56:09;;;;;;;;;;;26.40;83.60;;;;;;5076824;28;19912;-56
2022/02/15 06:58:36;;;;;;;;;;;26.30;84.30;;;;;;5085186;28;20366;-56
2022/02/15 07:01:05;;;;;;;;;;;26.30;83.90;;;;;;5086601;28;19912;-57
2022/02/15 07:03:32;;;;;;;;;;;26.40;83.80;;;;;;5078489;28;19954;-55
2022/02/15 07:05:59;;;;;;;;;;;26.30;84.30;;;;;;5079917;28;19908;-47
2022/02/15 07:08:26;;;;;;;;;;;26.30;84.10;;;;;;5087887;28;19908;-52
2022/02/15 07:10:56;;;;;;;;;;;26.30;84.10;;;;;;5083437;28;19934;-49
2022/02/15 07:13:26;;;;;;;;;;;26.30;84.00;;;;;;5085666;28;20274;-53
2022/02/15 07:15:59;;;;;;;;;;;26.30;83.80;;;;;;5079944;28;20003;-51
2022/02/15 07:18:26;;;;;;;;;;;26.30;84.10;;;;;;5070599;28;19930;-49
2022/02/15 07:20:53;;;;;;;;;;;26.30;84.00;;;;;;5071296;28;20410;-53
2022/02/15 07:23:20;;;;;;;;;;;26.30;84.00;;;;;;5053855;28;19931;-49
2022/02/15 07:25:47;;;;;;;;;;;26.30;84.40;;;;;;5049637;28;19962;-51
2022/02/15 07:28:13;;;;;;;;;;;26.20;84.40;;;;;;5069390;28;19915;-55
2022/02/15 07:30:40;;;;;;;;;;;26.20;84.50;;;;;;5069470;28;19955;-54
2022/02/15 07:33:07;;;;;;;;;;;26.20;85.00;;;;;;5069629;28;19990;-57
2022/02/15 07:35:34;;;;;;;;;;;26.20;84.80;;;;;;5069546;28;20396;-50
2022/02/15 07:38:01;;;;;;;;;;;26.10;85.00;;;;;;5067879;28;19908;-52
2022/02/15 07:40:28;;;;;;;;;;;26.10;83.50;;;;;;5065968;28;19923;-53
2022/02/15 07:42:55;;;;;;;;;;;26.00;83.40;;;;;;5072647;28;19909;-51
2022/02/15 07:45:22;;;;;;;;;;;26.00;84.00;;;;;;5072203;28;19931;-53
2022/02/15 07:47:49;;;;;;;;;;;26.00;84.20;;;;;;5072117;28;19909;-51
2022/02/15 07:50:17;;;;;;;;;;;26.10;84.30;;;;;;5072093;28;20363;-52
2022/02/15 07:52:44;;;;;;;;;;;26.00;83.30;;;;;;5071770;28;19908;-49
2022/02/15 07:55:12;;;;;;;;;;;26.00;83.00;;;;;;5071364;28;19909;-52
2022/02/15 07:57:41;;;;;;;;;;;25.90;83.80;;;;;;5072148;28;20332;-54
2022/02/15 08:00:08;;;;;;;;;;;25.90;83.30;;;;;;5072357;28;19973;-51
2022/02/15 08:02:34;;;;;;;;;;;25.90;84.40;;;;;;5071490;28;19909;-57
2022/02/15 08:05:01;;;;;;;;;;;25.90;84.80;;;;;;5069520;28;19985;-54
2022/02/15 08:07:31;;;;;;;;;;;25.70;83.20;;;;;;5070620;28;19912;-56
2022/02/15 08:09:59;;;;;;;;;;;25.70;85.00;;;;;;5072416;28;19908;-56
2022/02/15 08:12:26;;;;;;;;;;;25.70;84.10;;;;;;5071778;28;19916;-50
2022/02/15 08:14:53;;;;;;;;;;;25.50;83.60;;;;;;5073363;28;20389;-54
2022/02/15 08:17:20;;;;;;;;;;;25.40;85.30;;;;;;5112231;28;19963;-48
2022/02/15 08:19:46;;;;;;;;;;;25.40;83.90;;;;;;5078500;28;19908;-57
2022/02/15 08:22:13;;;;;;;;;;;25.30;84.20;;;;;;5096258;28;19908;-56
2022/02/15 08:24:40;;;;;;;;;;;25.20;83.80;;;;;;5095751;28;19915;-59
2022/02/15 08:27:06;;;;;;;;;;;25.20;84.20;;;;;;5096003;28;19908;-62
2022/02/15 08:29:33;;;;;;;;;;;25.30;84.40;;;;;;5077741;28;19948;-60
2022/02/15 08:32:00;;;;;;;;;;;25.30;84.30;;;;;;5094737;28;19912;-58
2022/02/15 08:34:27;;;;;;;;;;;25.30;83.90;;;;;;5096162;28;20296;-60
2022/02/15 08:36:57;;;;;;;;;;;25.30;84.00;;;;;;5096129;28;20339;-60
2022/02/15 08:39:25;;;;;;;;;;;25.40;83.60;;;;;;5077808;28;19908;-58
2022/02/15 08:41:52;;;;;;;;;;;25.40;85.40;;;;;;5096065;28;19915;-62
2022/02/15 08:44:19;;;;;;;;;;;25.40;85.20;;;;;;5095675;28;19915;-57
2022/02/15 08:46:45;;;;;;;;;;;25.40;85.30;;;;;;5095835;28;19908;-63
2022/02/15 08:49:12;;;;;;;;;;;25.30;85.10;;;;;;5095642;28;19943;-59
2022/02/15 08:51:39;;;;;;;;;;;25.30;86.40;;;;;;5095616;28;19915;-60
2022/02/15 08:54:05;;;;;;;;;;;25.30;84.50;;;;;;5095235;28;19998;-57
2022/02/15 08:56:32;;;;;;;;;;;25.20;85.50;;;;;;5088169;28;19961;-54
2022/02/15 08:59:00;;;;;;;;;;;25.30;85.50;;;;;;5093648;28;20394;-56
2022/02/15 09:01:27;;;;;;;;;;;25.30;89.30;;;;;;5089287;28;19953;-57
2022/02/15 09:03:54;;;;;;;;;;;25.40;87.20;;;;;;5089848;28;19923;-54
2022/02/15 09:06:23;;;;;;;;;;;25.30;85.50;;;;;;5054940;28;19916;-60
2022/02/15 09:08:50;;;;;;;;;;;25.30;88.60;;;;;;5091190;28;20274;-54
2022/02/15 09:11:17;;;;;;;;;;;25.40;87.60;;;;;;5088485;28;19946;-55
2022/02/15 09:13:43;;;;;;;;;;;25.40;87.70;;;;;;5089927;28;19924;-52
2022/02/15 09:16:10;;;;;;;;;;;25.30;85.10;;;;;;5088543;28;19969;-56
2022/02/15 09:18:37;;;;;;;;;;;25.20;87.70;;;;;;5083724;28;20363;-58
2022/02/15 09:21:04;;;;;;;;;;;25.30;85.10;;;;;;5079267;28;19931;-59
2022/02/15 09:23:30;;;;;;;;;;;25.20;85.40;;;;;;5075076;28;19908;-60
2022/02/15 09:25:59;;;;;;;;;;;25.20;85.60;;;;;;5074510;28;19908;-59
2022/02/15 09:28:26;;;;;;;;;;;25.20;87.50;;;;;;5056989;28;19963;-55
2022/02/15 09:30:55;;;;;;;;;;;25.20;85.30;;;;;;5056865;28;19909;-58
2022/02/15 09:33:24;;;;;;;;;;;25.20;86.10;;;;;;5074867;28;20390;-63
2022/02/15 09:35:51;;;;;;;;;;;25.10;85.90;;;;;;5074586;28;19950;-59
2022/02/15 09:38:18;;;;;;;;;;;25.10;87.80;;;;;;5040072;28;19920;-61
2022/02/15 09:40:45;;;;;;;;;;;25.20;86.60;;;;;;5071091;28;19912;-51
2022/02/15 09:43:11;;;;;;;;;;;25.20;87.20;;;;;;5078501;28;19913;-56
2022/02/15 09:45:38;;;;;;;;;;;25.10;87.40;;;;;;5085778;28;19920;-58
2022/02/15 09:48:08;;;;;;;;;;;25.10;89.30;;;;;;5064223;28;19969;-54
2022/02/15 09:50:35;;;;;;;;;;;25.20;89.20;;;;;;5085344;28;19962;-55
2022/02/15 09:53:02;;;;;;;;;;;25.10;88.30;;;;;;5070353;28;19912;-55
2022/02/15 09:55:29;;;;;;;;;;;25.00;87.40;;;;;;5083257;28;19915;-61
2022/02/15 09:57:55;;;;;;;;;;;25.00;87.10;;;;;;5082608;28;19916;-52
2022/02/15 10:00:23;;;;;;;;;;;25.10;86.90;;;;;;5066819;28;19908;-50
2022/02/15 10:02:49;;;;;;;;;;;25.10;88.90;;;;;;5089554;28;20003;-49
2022/02/15 10:05:17;;;;;;;;;;;25.20;89.10;;;;;;5080089;28;20273;-57
2022/02/15 10:07:46;;;;;;;;;;;25.20;88.90;;;;;;5086948;28;20045;-50
2022/02/15 10:10:13;;;;;;;;;;;25.20;88.80;;;;;;5085176;28;20567;-55
2022/02/15 10:12:40;;;;;;;;;;;25.20;88.80;;;;;;5086873;28;19934;-57
2022/02/15 10:15:10;;;;;;;;;;;25.20;88.80;;;;;;5079737;28;20296;-55
2022/02/15 10:17:37;;;;;;;;;;;25.20;89.00;;;;;;5073973;28;19919;-53
2022/02/15 10:20:05;;;;;;;;;;;25.20;88.50;;;;;;5075529;28;19919;-53
2022/02/15 10:22:36;;;;;;;;;;;25.20;88.90;;;;;;5069937;28;19951;-53
2022/02/15 10:25:03;;;;;;;;;;;25.30;88.80;;;;;;5065533;28;19915;-50
2022/02/15 10:27:34;;;;;;;;;;;25.20;89.30;;;;;;5073094;28;19908;-54
2022/02/15 10:30:03;;;;;;;;;;;25.30;88.60;;;;;;5070285;28;20370;-46
2022/02/15 10:32:30;;;;;;;;;;;25.20;88.70;;;;;;5070805;28;19924;-53
2022/02/15 10:34:58;;;;;;;;;;;25.20;88.50;;;;;;5067453;28;20282;-56
2022/02/15 10:37:26;;;;;;;;;;;25.30;88.90;;;;;;5070870;28;19913;-51
2022/02/15 10:39:57;;;;;;;;;;;25.20;88.60;;;;;;5069097;28;20492;-54
2022/02/15 10:42:25;;;;;;;;;;;25.20;88.70;;;;;;5073078;28;19909;-56
2022/02/15 10:44:58;;;;;;;;;;;25.30;88.80;;;;;;5067867;28;19957;-53
2022/02/15 10:47:27;;;;;;;;;;;25.20;88.70;;;;;;5073024;28;19917;-52
2022/02/15 10:49:55;;;;;;;;;;;25.20;88.60;;;;;;5073017;28;20359;-50
2022/02/15 10:52:21;;;;;;;;;;;25.20;88.70;;;;;;5089613;28;19961;-55
2022/02/15 10:54:48;;;;;;;;;;;25.20;88.70;;;;;;5071659;28;20128;-51
2022/02/15 10:57:17;;;;;;;;;;;25.20;88.60;;;;;;5070576;28;20313;-55
2022/02/15 10:59:44;;;;;;;;;;;25.20;89.00;;;;;;5072243;28;19908;-47
2022/02/15 11:02:16;;;;;;;;;;;25.20;88.70;;;;;;5070452;28;19908;-50
2022/02/15 11:04:44;;;;;;;;;;;25.20;88.60;;;;;;5070167;28;20017;-49
2022/02/15 11:07:11;;;;;;;;;;;25.20;88.70;;;;;;5072176;28;20378;-51
2022/02/15 11:09:41;;;;;;;;;;;25.20;88.70;;;;;;5073631;28;19912;-55
2022/02/15 11:12:08;;;;;;;;;;;25.20;88.50;;;;;;5051337;28;20343;-54
2022/02/15 11:14:38;;;;;;;;;;;25.20;88.60;;;;;;5069202;28;19923;-51
2022/02/15 11:17:10;;;;;;;;;;;25.20;88.80;;;;;;5118380;28;20450;-50
2022/02/15 11:19:43;;;;;;;;;;;25.10;88.40;;;;;;5089629;28;19947;-52
2022/02/15 11:22:22;;;;;;;;;;;25.20;88.60;;;;;;5090067;28;19908;-53
2022/02/15 11:24:48;;;;;;;;;;;25.20;88.80;;;;;;5082905;28;19908;-53
2022/02/15 11:27:22;;;;;;;;;;;25.20;88.70;;;;;;5090456;28;19919;-53
2022/02/15 11:29:54;;;;;;;;;;;25.20;88.50;;;;;;5087536;28;19912;-55
2022/02/15 11:32:25;;;;;;;;;;;25.20;88.70;;;;;;5089961;28;19921;-52
2022/02/15 11:34:52;;;;;;;;;;;25.10;88.60;;;;;;5084097;28;19916;-52
2022/02/15 11:37:23;;;;;;;;;;;25.10;88.80;;;;;;5090276;28;20002;-53
2022/02/15 11:40:00;;;;;;;;;;;25.10;88.80;;;;;;5089546;28;19916;-52
2022/02/15 11:42:26;;;;;;;;;;;25.10;88.70;;;;;;5089442;28;19952;-54
2022/02/15 11:44:57;;;;;;;;;;;25.10;88.80;;;;;;5086987;28;20394;-50
2022/02/15 11:47:29;;;;;;;;;;;25.10;88.70;;;;;;5090021;28;19908;-59
2022/02/15 11:49:55;;;;;;;;;;;;;;;;;;5087650;28;20434;-60
2022/02/15 11:52:22;;;;;;;;;;;;;;;;;;5076691;28;19999;-54
2022/02/15 11:54:49;;;;;;;;;;;;;;;;;;5075771;28;20437;-52
2022/02/15 11:57:15;;;;;;;;;;;;;;;;;;5076183;28;19913;-57
2022/02/15 11:59:42;;;;;;;;;;;;;;;;;;5076335;28;19915;-57
2022/02/15 12:02:10;;;;;;;;;;;;;;;;;;5076446;28;19912;-58
2022/02/15 12:04:36;;;;;;;;;;;;;;;;;;5075639;28;20270;-57
2022/02/15 12:07:03;;;;;;;;;;;;;;;;;;5076100;28;19908;-58
2022/02/15 12:09:29;;;;;;;;;;;;;;;;;;5075761;28;20439;-58
2022/02/15 12:11:56;;;;;;;;;;;;;;;;;;5075736;28;19994;-57
2022/02/15 12:14:23;;;;;;;;;;;;;;;;;;5075099;28;19922;-56
2022/02/15 12:16:49;;;;;;;;;;;;;;;;;;5075332;28;19920;-55
2022/02/15 12:19:16;;;;;;;;;;;;;;;;;;5075615;28;20370;-56
2022/02/15 12:21:42;;;;;;;;;;;;;;;;;;5075870;28;19908;-58
2022/02/15 12:24:12;;;;;;;;;;;;;;;;;;5075191;27;20374;-58
2022/02/15 12:26:42;;;;;;;;;;;;;;;;;;5075207;28;20370;-53
2022/02/15 12:29:08;;;;;;;;;;;;;;;;;;5074466;28;19908;-55
2022/02/15 12:31:35;;;;;;;;;;;;;;;;;;5074853;28;19986;-53
2022/02/15 12:34:02;;;;;;;;;;;;;;;;;;5075850;28;19960;-58
2022/02/15 12:36:28;;;;;;;;;;;;;;;;;;5075611;28;19948;-50
2022/02/15 12:38:55;;;;;;;;;;;;;;;;;;5073295;28;19965;-51
2022/02/15 12:41:24;;;;;;;;;;;;;;;;;;5094315;28;20006;-54
2022/02/15 12:43:50;;;;;;;;;;;;;;;;;;5092960;28;19909;-53
2022/02/15 12:46:17;;;;;;;;;;;;;;;;;;5091709;28;20281;-54
2022/02/15 12:48:43;;;;;;;;;;;;;;;;;;5092170;28;19908;-52
2022/02/15 12:51:10;;;;;;;;;;;;;;;;;;5092568;28;19916;-53
2022/02/15 12:53:37;;;;;;;;;;;;;;;;;;5092376;28;20011;-52
2022/02/15 12:56:10;;;;;;;;;;;;;;;;;;5090608;28;19912;-54
2022/02/15 12:58:37;;;;;;;;;;;;;;;;;;5093269;28;20667;-53
2022/02/15 13:01:05;;;;;;;;;;;;;;;;;;5092051;28;19912;-52
2022/02/15 13:03:32;;;;;;;;;;;;;;;;;;5092579;28;19908;-51
2022/02/15 13:06:02;;;;;;;;;;;;;;;;;;5089238;28;20007;-56
2022/02/15 13:08:28;;;;;;;;;;;;;;;;;;5092348;28;20049;-49
2022/02/15 13:10:57;;;;;;;;;;;;;;;;;;5092616;28;19909;-51
2022/02/15 13:13:24;;;;;;;;;;;;;;;;;;5092179;28;19912;-51
2022/02/15 13:15:51;;;;;;;;;;;;;;;;;;5082294;28;19920;-51
2022/02/15 13:18:21;;;;;;;;;;;;;;;;;;5072452;28;19912;-51
2022/02/15 13:20:49;;;;;;;;;;;;;;;;;;5070157;28;19916;-52
2022/02/15 13:23:16;;;;;;;;;;;;;;;;;;5057673;28;20292;-53
2022/02/15 13:25:43;;;;;;;;;;;;;;;;;;5072354;28;19940;-54
2022/02/15 13:28:10;;;;;;;;;;;;;;;;;;5074916;28;20338;-58
2022/02/15 13:30:37;;;;;;;;;;;;;;;;;;5074579;28;19955;-54
2022/02/15 13:33:04;;;;;;;;;;;;;;;;;;5073971;28;19921;-54
2022/02/15 13:35:30;;;;;;;;;;;;;;;;;;5072688;28;20302;-56
2022/02/15 13:37:58;;;;;;;;;;;;;;;;;;5072520;28;19908;-54
2022/02/15 13:40:24;;;;;;;;;;;;;;;;;;5072580;28;20003;-54
2022/02/15 13:42:54;;;;;;;;;;;;;;;;;;5074208;28;19908;-55
2022/02/15 13:45:20;;;;;;;;;;;;;;;;;;5070443;28;19931;-52
2022/02/15 13:47:47;;;;;;;;;;;;;;;;;;5071066;28;19920;-49
2022/02/15 13:50:13;;;;;;;;;;;;;;;;;;5073268;28;19908;-48
2022/02/15 13:52:39;;;;;;;;;;;;;;;;;;5077134;28;20749;-48
2022/02/15 13:55:06;;;;;;;;;;;;;;;;;;5072153;28;20355;-50
2022/02/15 13:57:33;;;;;;;;;;;;;;;;;;5073130;28;19912;-48
2022/02/15 13:59:59;;;;;;;;;;;;;;;;;;5072269;28;19908;-46
2022/02/15 14:02:26;;;;;;;;;;;;;;;;;;5071646;28;19909;-47
2022/02/15 14:04:52;;;;;;;;;;;;;;;;;;5071405;28;19954;-48
2022/02/15 14:07:19;;;;;;;;;;;;;;;;;;5071204;28;19960;-48
2022/02/15 14:09:45;;;;;;;;;;;;;;;;;;5075762;28;19908;-51
2022/02/15 14:12:18;;;;;;;;;;;;;;;;;;5072995;28;20260;-58
2022/02/15 14:14:44;;;;;;;;;;;;;;;;;;5073058;28;19916;-53
2022/02/15 14:19:55;;;;;;;;;;;;;;;;;;5071589;28;19924;-52
2022/02/15 14:22:22;;;;;;;;;;;;;;;;;;5072835;28;19915;-47
2022/02/15 14:24:48;;;;;;;;;;;;;;;;;;5070669;28;19969;-46
2022/02/15 14:27:14;;;;;;;;;;;;;;;;;;5072994;28;19908;-58
2022/02/15 14:29:41;;;;;;;;;;;;;;;;;;5071937;28;19909;-58
2022/02/15 14:32:07;;;;;;;;;;;;;;;;;;5070429;28;19938;-54
2022/02/15 14:34:34;;;;;;;;;;;;;;;;;;5071488;28;19928;-56
2022/02/15 14:37:01;;;;;;;;;;;;;;;;;;5072947;28;19909;-58
2022/02/15 14:39:28;;;;;;;;;;;;;;;;;;5068326;28;19916;-58
2022/02/15 14:41:55;;;;;;;;;;;;;;;;;;5076011;28;19995;-55
2022/02/15 14:44:21;;;;;;;;;;;;;;;;;;5071746;28;19912;-54
2022/02/15 14:46:51;;;;;;;;;;;;;;;;;;5071283;28;19940;-56
2022/02/15 14:49:17;;;;;;;;;;;;;;;;;;5069404;28;19919;-55
2022/02/15 14:51:44;;;;;;;;;;;;;;;;;;5072487;28;19916;-55
2022/02/15 14:54:10;;;;;;;;;;;;;;;;;;5071619;28;19963;-57
2022/02/15 14:56:37;;;;;;;;;;;;;;;;;;5073425;28;19908;-56